Terminal Aerodrome Forecast
Issued by NWS Spokane, WA

Home | Current Version | Previous Version | Text Only | Print | Product List | Glossary On
Versions: 1 2 3 4 5 6 7 8 9 10 11 12 13 14 15 16 17 18 19 20 21 22 23 24 25 26 27 28 29 30 31 32 33 34 35 36 37 38 39 40 41 42 43 44 45 46 47 48 49 50
000
FTUS46 KOTX 101950 AAA
TAFLWS
TAF AMD
KLWS 101950Z 1020/1118 VRB03KT P6SM SCT008 SCT200
     FM102200 13004KT P6SM BKN200
     FM110800 21004KT 4SM -RASN BR OVC025
     FM111400 22003KT 5SM BR OVC008=

USA.gov is the U.S. government's official web portal to all federal, state and local government web resources and services.